Portada
METAR-TAF:

METAR-TAF

Aeroports :

Hazen, Dakota del Nord, Estats Units d'Amèrica

latitud: 47-17-24N, longitud: 101-34-52W, altitud: 553 m

Observació

L'informe es va fer fa 25 minuts, a les 15:35 UTC
Vent calma
Temperatura -5°C
Humitat 100%
Pressió 1016 hPa
Cel ennuvolat a una alçada de 1200 ft
boira gebradora

METAR: KHZE 281535Z AUTO 00000KT M1/4SM FZFG BKN012 M05/M05 A2999 RMK AO2

Hora: 10:00 (16:00 UTC)


TAF: manca

Observacions i pronòstics meteorològics de més de 4000 aeroports (METAR i TAF).

Les estacions disponibles són els punts grocs i vermells al mapa.

Posi el ratolí al punt desitjat per veure el nom de l'estació.

Feu clic per veure les observacions i els pronòstics meteorològics.

Per canviar el mapa: feu clic els botons verds amb una creu de color negre per apropar; al botó verd amb un guió per allunyar la imatge; o en les fletxes verdes per a mapes adjacents.


METAR-TAF: